Time;durP1;ratioP1;P1;durP2;ratioP2;P2;SDS_P1;SDS_P2;PMS_P1;PMS_P2;Temp;Humidity;BMP_temperature;BMP_pressure;BME280_temperature;BME280_humidity;BME280_pressure;Samples;Min_cycle;Max_cycle;Signal;HPM_P1;HPM_P2
2022/01/02 00:01:50;;;;;;;3.30;1.50;;;;;;;15.62;48.24;99016.50;4487881;32;20422;-77
2022/01/02 00:04:19;;;;;;;4.47;1.70;;;;;;;15.91;47.12;99024.69;4488127;32;20088;-77
2022/01/02 00:06:49;;;;;;;3.58;1.50;;;;;;;16.03;46.87;99016.25;4488068;32;20415;-77
2022/01/02 00:09:36;;;;;;;3.72;1.48;;;;;;;16.08;46.59;99013.44;4487706;32;20160;-77
2022/01/02 00:12:11;;;;;;;3.42;1.52;;;;;;;15.46;48.55;99004.28;4488293;32;20160;-77
2022/01/02 00:14:44;;;;;;;5.87;1.73;;;;;;;15.25;49.32;99012.19;4487865;32;20105;-77
2022/01/02 00:17:12;;;;;;;6.70;2.20;;;;;;;14.79;49.97;99000.44;4487580;32;20171;-77
2022/01/02 00:19:44;;;;;;;5.43;2.03;;;;;;;14.43;50.42;98995.06;4487813;32;20164;-77
2022/01/02 00:22:15;;;;;;;6.75;2.40;;;;;;;13.76;52.29;99000.50;4474602;32;20402;-77
2022/01/02 00:24:43;;;;;;;5.97;2.20;;;;;;;14.66;50.13;98996.69;4487656;32;20133;-77
2022/01/02 00:27:12;;;;;;;7.75;2.37;;;;;;;15.36;47.81;98995.25;4488032;32;20084;-77
2022/01/02 00:29:42;;;;;;;6.60;2.28;;;;;;;14.18;50.23;98993.53;4473414;32;20140;-77
2022/01/02 00:32:10;;;;;;;8.73;2.30;;;;;;;13.41;52.43;98989.78;4488064;32;20193;-77
2022/01/02 00:34:39;;;;;;;6.70;2.03;;;;;;;13.01;54.23;98983.50;4487810;32;20140;-77
2022/01/02 00:37:06;;;;;;;5.45;2.30;;;;;;;14.32;50.75;98976.50;4487709;32;20099;-77
2022/01/02 00:39:34;;;;;;;8.30;2.20;;;;;;;14.33;50.03;98979.03;4487833;32;20224;-77
2022/01/02 00:42:10;;;;;;;6.05;2.03;;;;;;;13.41;53.03;98971.63;4487984;32;20092;-76
2022/01/02 00:45:06;;;;;;;6.20;2.08;;;;;;;12.75;55.50;98970.66;4473525;32;20420;-77
2022/01/02 00:47:36;;;;;;;5.05;1.70;;;;;;;13.53;53.28;98973.75;4487935;32;20156;-77
2022/01/02 00:50:07;;;;;;;7.62;2.60;;;;;;;14.72;49.24;98973.06;4487535;32;20140;-77
2022/01/02 00:52:39;;;;;;;6.87;2.20;;;;;;;14.99;48.50;98977.00;4487629;32;20140;-77
2022/01/02 00:55:10;;;;;;;6.25;2.33;;;;;;;14.73;48.75;98978.19;4487969;32;20160;-77
2022/01/02 00:57:39;;;;;;;6.32;2.20;;;;;;;14.82;48.54;98976.09;4473799;32;20183;-77
2022/01/02 01:00:12;;;;;;;6.32;2.42;;;;;;;14.99;47.80;98976.12;4487607;32;20080;-77
2022/01/02 01:02:47;;;;;;;7.50;2.40;;;;;;;15.04;47.15;98977.63;4488005;32;20110;-77
2022/01/02 01:05:19;;;;;;;5.30;2.20;;;;;;;14.57;48.15;98979.78;4487313;32;20435;-77
2022/01/02 01:07:49;;;;;;;6.18;2.12;;;;;;;15.36;46.18;98977.88;4487979;32;20099;-77
2022/01/02 01:10:16;;;;;;;6.25;2.28;;;;;;;14.68;48.15;98979.31;4487482;32;20159;-77
2022/01/02 01:12:45;;;;;;;5.90;2.33;;;;;;;12.60;55.76;98972.06;4487268;31;20475;-77
2022/01/02 01:15:12;;;;;;;7.10;2.65;;;;;;;10.86;62.75;98971.75;4487834;32;20574;-77
2022/01/02 01:17:39;;;;;;;6.97;2.53;;;;;;;10.77;64.34;98967.69;4487735;32;20098;-77
2022/01/02 01:20:09;;;;;;;8.70;3.50;;;;;;;12.32;58.52;98967.03;4487415;32;20107;-77
2022/01/02 01:22:36;;;;;;;9.35;3.25;;;;;;;13.08;55.48;98970.28;4487837;32;20096;-77
2022/01/02 01:25:07;;;;;;;10.13;4.00;;;;;;;14.04;52.14;98962.13;4487714;32;20148;-77
2022/01/02 01:27:34;;;;;;;8.75;3.30;;;;;;;14.41;50.51;98956.19;4486610;32;20151;-77
2022/01/02 01:30:02;;;;;;;11.25;3.20;;;;;;;14.13;51.32;98956.53;4487479;32;20219;-78
2022/01/02 01:32:29;;;;;;;8.32;3.00;;;;;;;14.03;51.31;98960.41;4487782;32;20114;-77
2022/01/02 01:34:56;;;;;;;8.25;2.90;;;;;;;13.67;52.72;98959.38;4487345;32;20148;-77
2022/01/02 01:37:23;;;;;;;8.30;2.80;;;;;;;13.43;53.01;98959.47;4487627;32;20163;-77
2022/01/02 01:39:50;;;;;;;6.90;2.67;;;;;;;11.87;58.89;98966.88;4487167;32;20160;-78
2022/01/02 01:42:28;;;;;;;10.40;3.28;;;;;;;13.63;53.74;98971.63;4473642;32;20164;-77
2022/01/02 01:47:40;;;;;;;7.62;2.92;;;;;;;14.17;50.36;98958.09;4475328;32;20352;-77
2022/01/02 01:50:08;;;;;;;5.37;1.87;;;;;;;13.63;50.46;98960.41;4487400;32;20140;-77
2022/01/02 01:52:35;;;;;;;7.55;2.40;;;;;;;13.49;50.50;98959.19;4487435;32;20160;-77
2022/01/02 01:55:02;;;;;;;5.20;1.95;;;;;;;11.95;55.31;98957.13;4487158;32;20104;-77
2022/01/02 01:57:29;;;;;;;5.40;1.92;;;;;;;12.15;55.26;98959.03;4487596;32;20226;-77
2022/01/02 01:59:56;;;;;;;5.40;1.98;;;;;;;11.32;57.90;98970.34;4487444;32;20459;-77
2022/01/02 02:02:23;;;;;;;4.30;1.70;;;;;;;11.70;57.33;98969.16;4487162;32;20114;-77
2022/01/02 02:04:50;;;;;;;6.03;1.95;;;;;;;12.49;55.49;98971.63;4487264;32;20108;-77
2022/01/02 02:07:20;;;;;;;5.12;2.10;;;;;;;12.44;55.64;98964.03;4487343;32;20155;-77
2022/01/02 02:10:12;;;;;;;5.87;2.15;;;;;;;11.59;57.17;98967.75;4486881;32;20088;-77
2022/01/02 02:12:38;;;;;;;6.07;2.20;;;;;;;11.34;58.58;98963.41;4486569;32;20127;-77
2022/01/02 02:15:06;;;;;;;8.57;2.42;;;;;;;10.41;62.12;98961.81;4486562;32;20100;-77
2022/01/02 02:17:34;;;;;;;7.32;2.22;;;;;;;9.75;65.05;98960.09;4487088;32;20100;-77
2022/01/02 02:20:14;;;;;;;6.43;2.30;;;;;;;9.62;64.62;98954.38;4486848;32;20080;-77
2022/01/02 02:22:43;;;;;;;7.07;2.50;;;;;;;10.69;61.59;98962.75;4486979;32;20102;-77
2022/01/02 02:25:11;;;;;;;7.45;2.20;;;;;;;10.97;61.03;98956.78;4487090;32;20114;-77
2022/01/02 02:27:38;;;;;;;8.30;2.58;;;;;;;11.40;60.50;98956.31;4487008;32;20497;-77
2022/01/02 02:30:06;;;;;;;5.90;2.10;;;;;;;12.31;57.46;98943.78;4486370;32;20175;-77
2022/01/02 02:32:33;;;;;;;6.57;2.00;;;;;;;11.94;58.09;98939.91;4486965;32;20115;-77
2022/01/02 02:35:00;;;;;;;7.65;2.55;;;;;;;11.40;60.29;98933.06;4487005;32;20475;-77
2022/01/02 02:37:29;;;;;;;4.30;1.77;;;;;;;11.85;59.19;98941.06;4486369;32;20085;-77
2022/01/02 02:39:56;;;;;;;5.62;2.25;;;;;;;12.38;57.03;98925.41;4487627;32;20088;-77
2022/01/02 02:42:39;;;;;;;6.47;2.20;;;;;;;13.01;55.30;98939.47;4488967;32;20093;-77
2022/01/02 02:50:46;;;;;;;6.53;1.98;;;;;;;13.76;52.50;98926.13;4488418;32;20132;-77
2022/01/02 02:53:14;;;;;;;4.82;2.00;;;;;;;13.26;53.23;98922.97;4488816;32;20160;-77
2022/01/02 02:55:47;;;;;;;6.35;2.03;;;;;;;13.06;53.29;98923.72;4489726;32;20139;-77
2022/01/02 03:01:00;;;;;;;6.70;2.45;;;;;;;13.68;51.33;98922.16;4489043;32;20102;-77
2022/01/02 03:03:27;;;;;;;6.87;2.40;;;;;;;13.99;49.77;98921.72;4488705;32;20105;-77
2022/01/02 03:05:54;;;;;;;6.30;2.20;;;;;;;13.68;50.27;98916.97;4488185;32;20100;-77
2022/01/02 03:08:21;;;;;;;7.15;2.33;;;;;;;13.35;50.52;98914.84;4488514;32;20110;-77
2022/01/02 03:10:48;;;;;;;7.22;2.40;;;;;;;13.56;49.41;98913.13;4488477;32;20111;-77
2022/01/02 03:13:15;;;;;;;7.40;2.67;;;;;;;13.06;50.07;98904.75;4487878;32;20156;-77
2022/01/02 03:15:42;;;;;;;7.18;2.67;;;;;;;12.94;50.49;98903.47;4488430;32;20160;-77
2022/01/02 03:18:09;;;;;;;5.80;2.40;;;;;;;12.79;50.92;98907.50;4488181;32;20076;-77
2022/01/02 03:20:36;;;;;;;8.75;2.67;;;;;;;12.66;50.96;98899.38;4488528;32;20129;-77
2022/01/02 03:23:03;;;;;;;7.32;2.22;;;;;;;12.85;50.58;98889.13;4488664;32;20162;-77
2022/01/02 03:25:30;;;;;;;6.22;2.20;;;;;;;13.06;49.89;98891.78;4488172;32;20175;-77
2022/01/02 03:27:57;;;;;;;5.87;2.15;;;;;;;12.92;50.46;98887.16;4488432;32;20187;-77
2022/01/02 03:30:24;;;;;;;6.25;2.40;;;;;;;13.46;48.57;98888.50;4488544;32;20694;-77
2022/01/02 03:32:51;;;;;;;5.95;2.17;;;;;;;12.81;49.98;98884.16;4488070;32;20542;-77
2022/01/02 03:35:18;;;;;;;7.57;2.78;;;;;;;12.30;50.87;98882.59;4488433;32;20106;-76
2022/01/02 03:37:45;;;;;;;6.05;2.35;;;;;;;12.50;51.01;98882.72;4474386;32;20167;-77
2022/01/02 03:40:12;;;;;;;9.15;2.80;;;;;;;12.25;51.93;98869.00;4487961;32;20088;-77
2022/01/02 03:42:39;;;;;;;7.20;2.55;;;;;;;12.55;52.02;98879.97;4488396;32;20071;-77
2022/01/02 03:45:06;;;;;;;7.28;2.90;;;;;;;11.10;56.84;98867.69;4474220;32;20111;-77
2022/01/02 03:47:34;;;;;;;7.07;2.72;;;;;;;10.23;60.62;98866.91;4488047;32;20104;-77
2022/01/02 03:50:03;;;;;;;7.43;3.17;;;;;;;10.20;60.73;98857.47;4488028;32;20591;-76
2022/01/02 03:52:30;;;;;;;8.43;2.97;;;;;;;9.74;62.08;98860.47;4487630;32;20140;-76
2022/01/02 03:54:58;;;;;;;11.00;3.15;;;;;;;9.15;64.32;98862.84;4487734;32;20152;-77
2022/01/02 03:57:25;;;;;;;7.95;3.10;;;;;;;10.45;60.25;98864.56;4488183;32;20162;-77
2022/01/02 03:59:52;;;;;;;8.55;3.00;;;;;;;10.88;58.80;98858.94;4487908;32;20160;-77
2022/01/02 04:02:19;;;;;;;7.37;2.60;;;;;;;10.45;60.01;98860.22;4487827;32;20164;-77
2022/01/02 04:04:47;;;;;;;8.07;2.97;;;;;;;9.86;61.89;98853.25;4488254;32;20458;-76
2022/01/02 04:07:14;;;;;;;9.20;2.80;;;;;;;10.28;60.28;98857.28;4487861;32;20080;-77
2022/01/02 04:09:41;;;;;;;7.80;2.80;;;;;;;9.62;62.37;98858.22;4487922;32;20140;-77
2022/01/02 04:12:08;;;;;;;7.82;2.58;;;;;;;10.43;60.16;98865.44;4488072;32;20439;-77
2022/01/02 04:14:35;;;;;;;9.15;2.95;;;;;;;10.82;58.36;98867.69;4487325;32;20132;-77
2022/01/02 04:17:02;;;;;;;8.00;2.70;;;;;;;10.48;59.07;98859.28;4488210;32;20510;-77
2022/01/02 04:19:29;;;;;;;6.53;2.83;;;;;;;10.69;58.41;98858.66;4488169;32;20092;-77
2022/01/02 04:21:57;;;;;;;7.60;2.85;;;;;;;10.45;59.45;98864.56;4487685;32;20115;-77
2022/01/02 04:24:23;;;;;;;7.50;2.45;;;;;;;10.56;58.79;98863.34;4487967;32;20127;-77
2022/01/02 04:26:50;;;;;;;7.72;2.53;;;;;;;11.10;57.02;98870.28;4487994;32;20392;-77
2022/01/02 04:29:17;;;;;;;7.53;2.80;;;;;;;11.34;56.79;98873.81;4487762;32;20056;-77
2022/01/02 04:31:44;;;;;;;7.62;2.72;;;;;;;11.17;57.29;98866.63;4488255;32;20466;-77
2022/01/02 04:34:11;;;;;;;7.75;2.75;;;;;;;11.11;57.35;98861.62;4488404;32;20092;-77
2022/01/02 04:36:38;;;;;;;8.07;3.00;;;;;;;10.17;60.11;98867.88;4487701;32;20148;-77
2022/01/02 04:39:05;;;;;;;8.23;2.70;;;;;;;10.55;58.39;98861.66;4488068;32;20084;-77
2022/01/02 04:41:32;;;;;;;8.25;2.87;;;;;;;10.28;59.27;98868.44;4473835;32;20148;-77
2022/01/02 04:43:59;;;;;;;7.75;2.72;;;;;;;10.34;59.39;98860.53;4487537;32;20147;-77
2022/01/02 04:46:26;;;;;;;7.75;2.78;;;;;;;9.91;61.47;98863.44;4488010;32;20102;-77
2022/01/02 04:48:53;;;;;;;8.38;2.80;;;;;;;9.78;61.96;98854.31;4487808;32;20404;-77
2022/01/02 04:51:20;;;;;;;7.70;2.80;;;;;;;9.88;61.97;98863.50;4487620;32;20481;-77
2022/01/02 04:53:48;;;;;;;7.68;2.85;;;;;;;10.56;59.46;98858.19;4487962;32;20192;-77
2022/01/02 04:56:16;;;;;;;10.50;2.95;;;;;;;9.88;62.47;98862.66;4487944;32;20103;-77
2022/01/02 04:58:43;;;;;;;7.80;2.50;;;;;;;10.05;61.31;98853.59;4487964;32;20104;-77
2022/01/02 05:01:14;;;;;;;10.23;2.87;;;;;;;10.09;60.51;98855.19;4488014;32;20148;-77
2022/01/02 05:03:42;;;;;;;6.60;2.15;;;;;;;10.36;59.67;98847.59;4486602;32;20108;-77
2022/01/02 05:06:10;;;;;;;7.25;2.58;;;;;;;9.70;61.86;98839.09;4473662;32;20151;-77
2022/01/02 05:08:37;;;;;;;5.82;2.40;;;;;;;8.82;65.64;98838.69;4473677;32;20160;-77
2022/01/02 05:11:04;;;;;;;7.47;2.40;;;;;;;9.03;65.50;98835.63;4487490;32;20115;-77
2022/01/02 05:13:31;;;;;;;6.85;2.58;;;;;;;9.98;61.83;98836.59;4460646;32;20148;-77
2022/01/02 05:15:58;;;;;;;6.90;2.55;;;;;;;10.77;58.49;98835.19;4473689;32;20450;-77
2022/01/02 05:18:25;;;;;;;8.93;3.05;;;;;;;9.54;62.84;98828.31;4487428;32;20080;-77
2022/01/02 05:20:52;;;;;;;7.25;2.55;;;;;;;10.70;58.88;98837.13;4487822;32;20149;-77
2022/01/02 05:23:21;;;;;;;8.20;2.90;;;;;;;9.17;64.22;98831.00;4487833;32;20156;-77
2022/01/02 05:25:48;;;;;;;10.07;2.95;;;;;;;10.42;59.87;98821.63;4487402;32;20530;-77
2022/01/02 05:28:15;;;;;;;7.40;2.87;;;;;;;10.42;59.93;98822.47;4487591;32;20501;-77
2022/01/02 05:30:42;;;;;;;8.43;3.00;;;;;;;10.15;60.34;98825.81;4487684;32;20528;-76
2022/01/02 05:33:10;;;;;;;9.68;3.00;;;;;;;9.24;63.10;98826.53;4487325;32;20106;-76
2022/01/02 05:35:38;;;;;;;11.27;3.08;;;;;;;9.45;62.01;98825.16;4487651;32;20132;-77
2022/01/02 05:38:05;;;;;;;7.82;3.28;;;;;;;10.36;59.50;98824.38;4487736;32;20582;-77
2022/01/02 05:40:33;;;;;;;7.82;2.97;;;;;;;10.59;58.05;98826.28;4487421;32;20093;-77
2022/01/02 05:43:01;;;;;;;10.70;3.17;;;;;;;10.39;58.51;98830.28;4487728;32;20104;-77
2022/01/02 05:45:28;;;;;;;8.23;2.95;;;;;;;10.73;57.62;98831.84;4487173;32;20649;-77
2022/01/02 05:47:55;;;;;;;7.97;2.72;;;;;;;10.20;59.02;98823.94;4487586;32;20435;-77
2022/01/02 05:50:22;;;;;;;7.85;3.20;;;;;;;10.90;57.47;98826.16;4487402;32;20776;-77
2022/01/02 05:52:50;;;;;;;8.35;3.03;;;;;;;10.86;57.65;98820.28;4487309;32;20076;-77
2022/01/02 05:55:17;;;;;;;9.70;3.55;;;;;;;10.80;57.18;98824.78;4487256;32;20143;-77
2022/01/02 05:57:44;;;;;;;9.35;3.40;;;;;;;8.74;65.31;98812.31;4487405;32;20119;-77
2022/01/02 06:00:11;;;;;;;9.27;3.15;;;;;;;10.02;61.89;98817.59;4472899;32;20092;-77
2022/01/02 06:02:38;;;;;;;8.60;3.40;;;;;;;8.67;66.99;98816.75;4487510;32;20158;-77
2022/01/02 06:05:06;;;;;;;8.02;3.05;;;;;;;8.69;66.02;98800.41;4487421;32;20494;-77
2022/01/02 06:07:34;;;;;;;8.77;3.33;;;;;;;10.02;61.34;98801.28;4473021;32;20098;-77
2022/01/02 06:10:03;;;;;;;9.48;3.10;;;;;;;10.84;58.66;98795.38;4487254;32;20486;-77
2022/01/02 06:12:30;;;;;;;7.90;2.87;;;;;;;10.01;60.83;98804.75;4487498;32;20181;-77
2022/01/02 06:14:57;;;;;;;8.50;3.20;;;;;;;10.75;58.17;98808.59;4486051;32;20088;-77
2022/01/02 06:17:24;;;;;;;10.07;3.05;;;;;;;11.01;57.38;98800.84;4487227;32;20596;-77
2022/01/02 06:19:51;;;;;;;9.25;3.20;;;;;;;10.92;58.21;98808.88;4486982;32;20104;-77
2022/01/02 06:22:18;;;;;;;9.35;3.25;;;;;;;10.62;59.86;98801.22;4487078;32;20115;-77
2022/01/02 06:24:45;;;;;;;7.82;3.30;;;;;;;9.98;62.19;98804.81;4487010;32;20366;-77
2022/01/02 06:27:12;;;;;;;10.52;3.75;;;;;;;10.09;60.86;98803.63;4487175;32;20102;-77
2022/01/02 06:29:39;;;;;;;10.88;3.20;;;;;;;9.95;61.44;98807.47;4486650;32;20168;-77
2022/01/02 06:32:06;;;;;;;8.15;3.03;;;;;;;10.92;58.84;98804.56;4487950;32;20100;-77
2022/01/02 06:34:33;;;;;;;9.50;3.62;;;;;;;9.92;62.09;98799.84;4487507;32;20089;-77
2022/01/02 06:37:00;;;;;;;9.73;3.35;;;;;;;10.19;60.85;98803.34;4487432;32;20148;-77
2022/01/02 06:39:26;;;;;;;8.75;3.20;;;;;;;10.01;61.64;98808.16;4486925;32;20093;-77
2022/01/02 06:41:59;;;;;;;9.02;3.30;;;;;;;10.15;61.29;98800.03;4486719;32;20092;-77
2022/01/02 06:44:26;;;;;;;11.93;3.60;;;;;;;11.02;58.40;98802.53;4486748;32;20093;-77
2022/01/02 06:46:53;;;;;;;9.60;3.35;;;;;;;9.91;61.49;98806.75;4486702;32;20092;-77
2022/01/02 06:49:20;;;;;;;9.65;3.53;;;;;;;10.95;58.90;98803.63;4486228;32;20111;-77
2022/01/02 06:51:47;;;;;;;8.38;3.45;;;;;;;10.77;59.23;98799.91;4486590;32;20092;-77
2022/01/02 06:54:14;;;;;;;8.70;3.33;;;;;;;10.04;61.18;98795.19;4486607;32;20140;-76
2022/01/02 06:56:41;;;;;;;8.05;3.40;;;;;;;10.58;59.65;98799.63;4486102;32;20103;-77
2022/01/02 06:59:08;;;;;;;12.07;3.67;;;;;;;10.58;59.31;98781.56;4486316;32;20145;-77
2022/01/02 07:01:35;;;;;;;9.73;3.83;;;;;;;10.17;61.82;98777.62;4486518;32;20144;-77
2022/01/02 07:04:02;;;;;;;9.32;3.78;;;;;;;10.47;60.68;98783.63;4486141;32;20080;-77
2022/01/02 07:06:29;;;;;;;10.23;4.70;;;;;;;11.44;57.79;98773.56;4486264;32;20140;-77
2022/01/02 07:08:56;;;;;;;10.13;4.45;;;;;;;11.19;58.98;98778.75;4486107;32;20144;-77
2022/01/02 07:11:23;;;;;;;12.70;5.55;;;;;;;11.62;58.07;98778.12;4485996;32;20093;-77
2022/01/02 07:13:50;;;;;;;13.23;4.62;;;;;;;11.20;61.67;98781.28;4485924;32;20108;-77
2022/01/02 07:16:17;;;;;;;11.18;4.40;;;;;;;11.45;61.52;98781.28;4485999;32;20528;-77
2022/01/02 07:18:44;;;;;;;11.38;4.50;;;;;;;12.09;59.81;98785.91;4485668;32;20112;-77
2022/01/02 07:21:11;;;;;;;13.77;4.32;;;;;;;12.44;57.60;98780.28;4486292;32;20159;-77
2022/01/02 07:23:38;;;;;;;8.40;3.45;;;;;;;11.59;59.45;98775.66;4485837;32;20140;-77
2022/01/02 07:26:06;;;;;;;9.27;3.58;;;;;;;13.08;54.85;98773.41;4486336;32;20128;-77
2022/01/02 07:28:33;;;;;;;8.63;3.47;;;;;;;13.14;54.19;98775.75;4488177;32;20480;-77
2022/01/02 07:31:01;;;;;;;10.77;3.80;;;;;;;13.68;52.89;98782.97;4486475;32;20144;-77
2022/01/02 07:33:28;;;;;;;8.43;2.95;;;;;;;13.85;53.18;98780.47;4488409;32;20119;-77
2022/01/02 07:35:55;;;;;;;8.15;2.70;;;;;;;14.34;51.23;98790.38;4488106;32;20148;-77
2022/01/02 07:38:30;;;;;;;7.12;2.92;;;;;;;15.23;48.16;98787.00;4487977;32;20089;-77
2022/01/02 07:40:57;;;;;;;7.80;3.05;;;;;;;15.24;48.61;98788.69;4488245;32;20092;-77
2022/01/02 07:43:24;;;;;;;9.15;3.00;;;;;;;16.18;46.26;98785.56;4487554;32;20429;-77
2022/01/02 07:45:51;;;;;;;7.72;2.78;;;;;;;16.42;44.41;98778.19;4488001;32;20128;-77
2022/01/02 07:48:19;;;;;;;8.38;2.83;;;;;;;16.73;44.03;98772.97;4488230;32;20463;-77
2022/01/02 07:50:45;;;;;;;6.95;2.85;;;;;;;14.24;50.60;98774.37;4488365;32;20140;-77
2022/01/02 07:53:12;;;;;;;9.43;3.50;;;;;;;16.70;44.67;98767.94;4488177;32;20486;-77
2022/01/02 07:55:39;;;;;;;12.40;5.70;;;;;;;17.58;42.40;98767.16;4488466;32;20081;-77
2022/01/02 07:58:11;;;;;;;10.50;4.62;;;;;;;17.92;41.72;98765.16;4488500;32;20112;-77
2022/01/02 08:00:38;;;;;;;10.40;4.43;;;;;;;19.11;39.69;98764.56;4488384;32;20151;-78
2022/01/02 08:03:05;;;;;;;9.27;3.50;;;;;;;19.35;38.90;98766.41;4488510;32;20092;-78
2022/01/02 08:05:38;;;;;;;8.32;3.60;;;;;;;18.95;39.91;98747.28;4488538;32;20072;-77
2022/01/02 08:08:04;;;;;;;8.30;3.40;;;;;;;19.79;38.97;98759.13;4474063;32;20116;-78
2022/01/02 08:10:31;;;;;;;8.32;3.20;;;;;;;20.35;37.61;98762.16;4488404;32;20666;-78
2022/01/02 08:12:58;;;;;;;8.20;3.20;;;;;;;20.54;36.92;98756.47;4488159;32;20135;-77
2022/01/02 08:15:25;;;;;;;8.68;3.60;;;;;;;20.71;36.71;98753.44;4488358;31;20151;-78
2022/01/02 08:17:52;;;;;;;8.48;3.50;;;;;;;20.91;35.88;98750.19;4488429;32;20348;-78
2022/01/02 08:20:19;;;;;;;8.45;3.00;;;;;;;21.39;35.75;98739.62;4488364;32;20180;-78
2022/01/02 08:22:46;;;;;;;7.95;3.10;;;;;;;21.82;34.94;98731.09;4488384;32;20144;-77
2022/01/02 08:25:13;;;;;;;6.65;2.65;;;;;;;21.60;34.66;98724.88;4488184;32;20127;-77
2022/01/02 08:27:40;;;;;;;6.70;2.65;;;;;;;20.87;36.37;98713.81;4488035;32;20114;-77
2022/01/02 08:30:08;;;;;;;7.97;2.78;;;;;;;20.58;37.76;98714.16;4488092;32;20136;-77
2022/01/02 08:32:36;;;;;;;5.70;2.35;;;;;;;20.31;38.58;98710.88;4488345;32;20513;-77
2022/01/02 08:35:03;;;;;;;5.87;2.10;;;;;;;20.86;37.85;98714.78;4487609;32;20110;-77
2022/01/02 08:37:30;;;;;;;5.07;2.20;;;;;;;20.04;39.16;98711.91;4487605;32;20149;-77
2022/01/02 08:39:58;;;;;;;6.90;2.60;;;;;;;20.03;39.68;98714.66;4473561;32;20475;-77
2022/01/02 08:42:25;;;;;;;7.78;2.85;;;;;;;19.36;41.12;98723.59;4487988;32;20133;-77
2022/01/02 08:44:53;;;;;;;7.70;2.65;;;;;;;19.16;41.16;98721.47;4487169;32;20455;-77
2022/01/02 08:47:20;;;;;;;6.70;2.50;;;;;;;18.30;42.90;98727.97;4487948;32;20088;-77
2022/01/02 08:49:47;;;;;;;7.82;2.30;;;;;;;17.59;45.12;98726.25;4487330;32;20596;-77
2022/01/02 08:52:14;;;;;;;5.50;2.10;;;;;;;17.96;44.91;98727.47;4487822;32;20576;-77
2022/01/02 08:54:40;;;;;;;6.53;2.40;;;;;;;17.68;45.44;98717.03;4487784;32;20080;-77
2022/01/02 08:57:08;;;;;;;6.07;2.17;;;;;;;18.43;44.21;98711.41;4473611;32;20105;-77
2022/01/02 08:59:36;;;;;;;4.22;1.90;;;;;;;18.21;44.76;98708.50;4487672;32;20498;-77
2022/01/02 09:02:03;;;;;;;6.50;2.30;;;;;;;18.47;44.14;98707.66;4487662;32;20155;-77
2022/01/02 09:04:30;;;;;;;5.78;2.15;;;;;;;18.61;43.91;98706.78;4487733;32;20111;-77
2022/01/02 09:06:57;;;;;;;5.12;2.00;;;;;;;19.44;42.19;98701.28;4487910;32;20423;-77
2022/01/02 09:09:24;;;;;;;4.68;1.95;;;;;;;19.56;41.88;98696.06;4487340;32;20537;-77
2022/01/02 09:11:52;;;;;;;7.68;2.00;;;;;;;19.86;41.55;98687.84;4473794;32;20084;-77
2022/01/02 09:14:19;;;;;;;5.60;2.20;;;;;;;19.73;41.68;98683.59;4487755;32;20428;-77
2022/01/02 09:16:46;;;;;;;4.93;2.28;;;;;;;20.09;40.51;98685.38;4487894;32;20164;-77
2022/01/02 09:19:13;;;;;;;6.32;2.45;;;;;;;20.31;40.08;98680.31;4488171;32;20100;-77
2022/01/02 09:21:40;;;;;;;5.62;2.30;;;;;;;20.66;39.83;98669.88;4487971;32;20445;-77
2022/01/02 09:24:07;;;;;;;6.62;2.40;;;;;;;19.88;40.63;98670.28;4487749;32;20148;-77
2022/01/02 09:26:34;;;;;;;4.85;1.87;;;;;;;20.41;39.48;98683.06;4487673;32;20111;-78
2022/01/02 09:29:01;;;;;;;4.82;2.05;;;;;;;19.71;41.01;98673.25;4487578;32;20144;-77
2022/01/02 09:31:28;;;;;;;5.32;2.10;;;;;;;19.14;40.98;98652.75;4487073;32;20107;-77
2022/01/02 09:33:55;;;;;;;5.72;2.00;;;;;;;18.69;41.90;98667.09;4487572;32;20427;-77
2022/01/02 09:36:22;;;;;;;7.30;2.03;;;;;;;18.16;43.10;98653.94;4473134;32;20363;-76
2022/01/02 09:38:50;;;;;;;6.05;2.12;;;;;;;18.01;44.24;98659.31;4487029;32;20151;-76
2022/01/02 09:41:20;;;;;;;4.30;1.85;;;;;;;17.36;45.69;98649.38;4487445;32;20481;-77
2022/01/02 09:43:48;;;;;;;4.37;1.95;;;;;;;17.40;46.03;98642.19;4487495;32;20129;-77
2022/01/02 09:46:25;;;;;;;5.87;2.12;;;;;;;18.78;42.76;98641.19;4486989;32;20157;-78
2022/01/02 09:48:54;;;;;;;5.87;2.00;;;;;;;18.41;42.99;98626.25;4486556;32;20096;-78
2022/01/02 09:51:26;;;;;;;5.05;2.00;;;;;;;19.75;40.56;98627.56;4487036;32;20098;-78
2022/01/02 09:53:54;;;;;;;5.80;2.08;;;;;;;19.52;40.84;98623.91;4487415;32;20116;-78
2022/01/02 09:56:22;;;;;;;5.28;1.70;;;;;;;20.01;39.59;98638.81;4487105;32;20092;-78
2022/01/02 09:58:49;;;;;;;4.68;1.87;;;;;;;21.41;37.32;98650.28;4486891;32;20368;-77
2022/01/02 10:01:21;;;;;;;6.82;2.28;;;;;;;20.93;37.19;98645.97;4487315;32;20484;-78
2022/01/02 10:03:53;;;;;;;6.60;2.03;;;;;;;19.89;39.32;98644.94;4487228;32;20077;-77
2022/01/02 10:06:21;;;;;;;7.03;2.12;;;;;;;19.01;41.74;98630.94;4487262;32;20680;-77
2022/01/02 10:08:48;;;;;;;7.22;2.00;;;;;;;19.26;41.22;98624.91;4487758;32;20097;-77
2022/01/02 10:11:20;;;;;;;6.55;1.83;;;;;;;19.27;41.23;98619.56;4487946;32;20060;-77
2022/01/02 10:14:01;;;;;;;6.53;2.00;;;;;;;19.34;40.99;98625.19;4487013;31;20228;-77
2022/01/02 10:16:40;;;;;;;4.55;1.80;;;;;;;18.96;41.69;98612.97;4488138;32;20093;-77
2022/01/02 10:19:26;;;;;;;4.95;2.10;;;;;;;19.19;41.49;98613.19;4487956;32;20108;-77
2022/01/02 10:22:02;;;;;;;5.15;1.73;;;;;;;19.05;41.26;98612.34;4488296;32;20075;-77
2022/01/02 10:24:30;;;;;;;5.97;2.03;;;;;;;19.15;40.79;98607.34;4473960;32;20084;-77
2022/01/02 10:27:08;;;;;;;4.97;2.00;;;;;;;18.88;41.55;98601.34;4486534;32;20430;-76
2022/01/02 10:29:50;;;;;;;5.57;1.90;;;;;;;18.50;42.41;98597.75;4486814;32;20135;-76
2022/01/02 10:32:36;;;;;;;4.93;1.90;;;;;;;18.33;42.55;98595.38;4486748;32;20094;-76
2022/01/02 10:35:16;;;;;;;5.28;2.00;;;;;;;18.04;43.40;98596.44;4472336;32;20088;-76
2022/01/02 10:37:51;;;;;;;6.55;2.00;;;;;;;18.08;43.22;98588.31;4486765;32;20134;-76
2022/01/02 10:40:25;;;;;;;5.82;2.08;;;;;;;17.42;45.28;98581.16;4486409;32;20175;-76
2022/01/02 10:42:53;;;;;;;4.10;1.73;;;;;;;18.43;42.83;98578.16;4487070;32;20163;-77
2022/01/02 10:45:33;;;;;;;5.70;2.15;;;;;;;17.92;43.45;98558.91;4472780;32;20147;-77
2022/01/02 10:48:01;;;;;;;4.15;2.03;;;;;;;18.35;42.89;98562.16;4486420;32;20541;-77
2022/01/02 10:50:35;;;;;;;5.30;2.05;;;;;;;17.13;45.94;98562.13;4486588;32;20092;-77
2022/01/02 10:53:16;;;;;;;4.93;2.20;;;;;;;16.72;46.91;98565.44;4486434;32;20562;-76
2022/01/02 10:55:46;;;;;;;8.85;2.55;;;;;;;17.85;44.78;98555.84;4486138;32;20160;-77
2022/01/02 10:58:14;;;;;;;5.50;2.17;;;;;;;17.35;45.94;98556.41;4472428;32;20172;-76
2022/01/02 11:00:43;;;;;;;6.85;2.30;;;;;;;17.24;46.33;98543.22;4486673;32;20144;-75
2022/01/02 11:03:12;;;;;;;5.55;2.47;;;;;;;17.26;46.18;98544.78;4488308;32;20087;-76
2022/01/02 11:05:39;;;;;;;8.73;2.33;;;;;;;17.61;45.71;98541.72;4488570;32;20112;-77
2022/01/02 11:08:07;;;;;;;6.85;2.40;;;;;;;17.38;45.60;98537.97;4488658;32;20151;-77
2022/01/02 11:10:37;;;;;;;8.20;2.62;;;;;;;17.27;46.00;98537.78;4488413;32;20205;-77
2022/01/02 11:13:05;;;;;;;8.13;2.30;;;;;;;16.87;46.91;98529.81;4488445;32;20501;-77
2022/01/02 11:15:33;;;;;;;6.75;2.53;;;;;;;16.84;47.23;98530.00;4488097;32;20101;-76
2022/01/02 11:18:01;;;;;;;6.30;2.45;;;;;;;16.70;47.11;98530.00;4488298;32;20088;-77
2022/01/02 11:20:32;;;;;;;7.03;2.67;;;;;;;16.59;47.51;98528.00;4488498;32;20164;-77
2022/01/02 11:22:59;;;;;;;5.78;2.25;;;;;;;17.38;46.23;98514.47;4488426;32;20411;-77
2022/01/02 11:25:46;;;;;;;6.37;2.50;;;;;;;16.87;46.44;98506.34;4488453;32;20118;-77
2022/01/02 11:28:22;;;;;;;5.55;2.25;;;;;;;17.44;45.99;98500.19;4474298;32;20539;-77
2022/01/02 11:30:50;;;;;;;7.40;2.75;;;;;;;16.87;46.26;98497.69;4488093;32;20451;-77
2022/01/02 11:33:19;;;;;;;5.78;2.30;;;;;;;16.35;48.08;98485.16;4488402;32;20088;-77
2022/01/02 11:35:48;;;;;;;6.87;2.50;;;;;;;16.38;48.06;98480.62;4488335;32;20077;-77
2022/01/02 11:38:17;;;;;;;6.32;2.22;;;;;;;16.74;47.74;98481.97;4488046;32;20109;-77
2022/01/02 11:40:53;;;;;;;7.55;2.80;;;;;;;17.06;46.63;98466.97;4488410;32;20155;-77
2022/01/02 11:43:35;;;;;;;8.65;2.37;;;;;;;17.23;46.15;98461.53;4488058;32;20100;-77
2022/01/02 11:46:29;;;;;;;6.55;2.28;;;;;;;17.08;46.78;98461.63;4488477;32;20539;-77
2022/01/02 11:49:05;;;;;;;6.22;2.35;;;;;;;17.01;46.50;98446.41;4488365;32;20124;-77
2022/01/02 11:51:47;;;;;;;6.15;2.33;;;;;;;17.04;47.01;98445.38;4488093;32;20164;-77
2022/01/02 11:54:30;;;;;;;6.22;2.58;;;;;;;17.66;45.84;98442.28;4488393;32;20094;-77